Time;durP1;ratioP1;P1;durP2;ratioP2;P2;SDS_P1;SDS_P2;PMS_P1;PMS_P2;Temp;Humidity;BMP_temperature;BMP_pressure;BME280_temperature;BME280_humidity;BME280_pressure;Samples;Min_cycle;Max_cycle;Signal;HPM_P1;HPM_P2
2022/08/07 00:01:08;;;;;;;5.43;3.08;;;13.60;99.90;;;;;;5012842;28;20037;-57
2022/08/07 00:03:35;;;;;;;4.32;2.28;;;13.60;99.90;;;;;;5013478;28;20034;-59
2022/08/07 00:06:01;;;;;;;4.15;2.75;;;13.50;99.90;;;;;;5019317;28;20139;-58
2022/08/07 00:08:27;;;;;;;5.38;2.97;;;13.50;99.90;;;;;;5012936;28;20034;-58
2022/08/07 00:10:52;;;;;;;5.05;3.00;;;13.40;99.90;;;;;;5014219;28;20026;-57
2022/08/07 00:13:20;;;;;;;4.50;2.30;;;13.40;99.90;;;;;;5014815;28;20038;-58
2022/08/07 00:15:46;;;;;;;7.07;3.40;;;13.40;99.90;;;;;;5011121;28;20038;-58
2022/08/07 00:18:13;;;;;;;7.57;3.08;;;13.40;99.90;;;;;;5015843;28;20030;-58
2022/08/07 00:20:39;;;;;;;6.60;3.50;;;13.30;99.90;;;;;;5014464;28;20030;-59
2022/08/07 00:23:05;;;;;;;5.13;2.92;;;13.20;99.90;;;;;;5018897;28;20028;-58
2022/08/07 00:25:32;;;;;;;5.72;3.40;;;13.20;99.90;;;;;;5012143;28;20030;-59
2022/08/07 00:27:57;;;;;;;5.40;3.03;;;13.20;99.90;;;;;;5013030;28;20033;-59
2022/08/07 00:30:24;;;;;;;4.13;2.90;;;13.20;99.90;;;;;;5017221;28;20026;-59
2022/08/07 00:32:50;;;;;;;3.97;3.08;;;13.20;99.90;;;;;;5010006;28;20030;-59
2022/08/07 00:35:18;;;;;;;7.95;3.10;;;13.20;99.90;;;;;;5012230;28;20117;-57
2022/08/07 00:37:43;;;;;;;7.82;4.28;;;13.10;99.90;;;;;;5011312;28;20500;-57
2022/08/07 00:40:10;;;;;;;8.15;3.03;;;13.10;99.90;;;;;;5014887;28;20034;-57
2022/08/07 00:42:35;;;;;;;3.63;2.90;;;13.10;99.90;;;;;;5013643;28;20041;-57
2022/08/07 00:45:01;;;;;;;5.60;3.35;;;13.10;99.90;;;;;;5015526;28;20056;-57
2022/08/07 00:47:27;;;;;;;7.35;4.78;;;13.00;99.90;;;;;;5012794;28;20053;-58
2022/08/07 00:49:53;;;;;;;4.35;3.17;;;13.00;99.90;;;;;;5011107;28;20034;-58
2022/08/07 00:52:18;;;;;;;10.63;3.70;;;12.90;99.90;;;;;;5017111;28;20091;-58
2022/08/07 00:54:44;;;;;;;4.68;3.22;;;12.90;99.90;;;;;;5009619;28;20478;-58
2022/08/07 00:57:11;;;;;;;4.93;2.95;;;12.80;99.90;;;;;;5012606;28;20457;-58
2022/08/07 00:59:37;;;;;;;3.90;2.65;;;12.80;99.90;;;;;;5007388;28;20068;-58
2022/08/07 01:02:07;;;;;;;6.63;3.20;;;12.80;99.90;;;;;;5015213;28;20107;-57
2022/08/07 01:04:33;;;;;;;5.05;3.03;;;12.80;99.90;;;;;;5009373;28;20497;-58
2022/08/07 01:06:58;;;;;;;6.38;3.03;;;12.70;99.90;;;;;;5004770;28;20030;-57
2022/08/07 01:09:24;;;;;;;3.58;2.88;;;12.70;99.90;;;;;;5016186;28;20032;-58
2022/08/07 01:11:51;;;;;;;5.68;3.78;;;12.50;99.90;;;;;;5007036;28;20179;-58
2022/08/07 01:14:19;;;;;;;5.25;3.63;;;12.50;99.90;;;;;;5014213;28;20063;-58
2022/08/07 01:16:45;;;;;;;3.97;2.72;;;12.50;99.90;;;;;;5016927;28;20030;-58
2022/08/07 01:19:11;;;;;;;4.93;2.80;;;12.50;99.90;;;;;;5010937;28;20032;-58
2022/08/07 01:21:37;;;;;;;6.05;3.45;;;12.50;99.90;;;;;;5008888;28;20041;-57
2022/08/07 01:24:03;;;;;;;5.43;3.30;;;12.50;99.90;;;;;;5015026;28;20031;-58
2022/08/07 01:26:30;;;;;;;4.53;3.20;;;12.50;99.90;;;;;;5014065;28;20103;-58
2022/08/07 01:28:56;;;;;;;4.78;3.75;;;12.40;99.90;;;;;;5009026;28;20556;-58
2022/08/07 01:31:30;;;;;;;5.35;3.80;;;12.40;99.90;;;;;;5013034;28;20034;-58
2022/08/07 01:34:00;;;;;;;5.25;3.25;;;12.40;99.90;;;;;;5011119;28;20029;-58
2022/08/07 01:36:27;;;;;;;7.03;3.67;;;12.40;99.90;;;;;;5019953;28;20076;-58
2022/08/07 01:38:54;;;;;;;5.45;3.22;;;12.40;99.90;;;;;;5011143;28;20037;-57
2022/08/07 01:41:20;;;;;;;5.43;3.55;;;12.30;99.90;;;;;;5020834;28;20036;-58
2022/08/07 01:43:47;;;;;;;6.38;3.30;;;12.20;99.90;;;;;;5017295;28;20033;-58
2022/08/07 01:46:14;;;;;;;5.20;3.38;;;12.20;99.90;;;;;;5010327;28;20075;-58
2022/08/07 01:48:42;;;;;;;9.88;3.95;;;12.20;99.90;;;;;;5014510;28;20549;-58
2022/08/07 01:51:11;;;;;;;4.35;3.47;;;12.30;99.90;;;;;;5009472;28;20041;-58
2022/08/07 01:53:41;;;;;;;5.28;3.90;;;12.20;99.90;;;;;;5024754;28;20037;-58
2022/08/07 01:56:14;;;;;;;5.88;3.15;;;12.20;99.90;;;;;;5012091;28;20065;-58
2022/08/07 01:58:58;;;;;;;5.28;3.53;;;12.20;99.90;;;;;;5007770;28;20034;-57
2022/08/07 02:01:29;;;;;;;7.50;3.65;;;12.10;99.90;;;;;;5010275;28;20033;-58
2022/08/07 02:04:31;;;;;;;5.93;3.58;;;12.00;99.90;;;;;;5007668;28;20034;-60
2022/08/07 02:07:00;;;;;;;7.32;3.92;;;12.00;99.90;;;;;;5005838;28;20036;-58
2022/08/07 02:09:28;;;;;;;8.88;4.05;;;11.90;99.90;;;;;;5020452;28;20053;-58
2022/08/07 02:11:55;;;;;;;4.50;3.38;;;11.90;99.90;;;;;;5011480;28;20422;-58
2022/08/07 02:14:22;;;;;;;7.53;4.20;;;11.90;99.90;;;;;;5010314;28;20030;-59
2022/08/07 02:16:50;;;;;;;6.22;3.45;;;11.90;99.90;;;;;;5016164;28;20116;-58
2022/08/07 02:19:16;;;;;;;6.95;3.88;;;11.90;99.90;;;;;;5009899;28;20022;-58
2022/08/07 02:21:43;;;;;;;5.97;3.97;;;11.80;99.90;;;;;;5010471;28;20034;-58
2022/08/07 02:24:11;;;;;;;7.45;4.10;;;11.80;99.90;;;;;;5014438;28;20026;-58
2022/08/07 02:26:38;;;;;;;7.35;3.15;;;11.70;99.90;;;;;;4982500;28;20406;-58
2022/08/07 02:29:06;;;;;;;4.63;2.88;;;11.80;99.90;;;;;;5015640;28;20096;-57
2022/08/07 02:31:34;;;;;;;6.10;3.38;;;11.70;99.90;;;;;;5012141;28;20034;-58
2022/08/07 02:34:02;;;;;;;8.35;3.13;;;11.70;99.90;;;;;;5009533;28;20032;-57
2022/08/07 02:36:29;;;;;;;5.30;3.22;;;11.70;99.90;;;;;;5008850;28;20030;-58
2022/08/07 02:38:56;;;;;;;4.75;3.45;;;11.60;99.90;;;;;;5013806;28;20041;-58
2022/08/07 02:41:23;;;;;;;5.80;3.10;;;11.60;99.90;;;;;;5008019;28;20053;-58
2022/08/07 02:43:49;;;;;;;4.95;3.10;;;11.60;99.90;;;;;;5010635;28;20025;-58
2022/08/07 02:46:18;;;;;;;3.88;3.00;;;11.60;99.90;;;;;;5009984;28;20121;-58
2022/08/07 02:48:44;;;;;;;8.38;3.03;;;11.60;99.90;;;;;;5013084;28;20030;-58
2022/08/07 02:51:13;;;;;;;3.30;2.72;;;11.60;99.90;;;;;;5008916;28;20022;-58
2022/08/07 02:53:41;;;;;;;4.97;3.03;;;11.60;99.90;;;;;;5007777;28;20026;-58
2022/08/07 02:56:13;;;;;;;5.07;3.35;;;11.50;99.90;;;;;;5014164;28;20061;-58
2022/08/07 02:58:41;;;;;;;;;;;11.40;99.90;;;;;;5016002;28;20060;-58
2022/08/07 03:01:08;;;;;;;7.93;4.63;;;11.40;99.90;;;;;;5009590;28;19909;-58
2022/08/07 03:03:35;;;;;;;9.57;3.72;;;11.30;99.90;;;;;;5019184;28;20041;-57
2022/08/07 03:06:02;;;;;;;5.50;3.08;;;11.30;99.90;;;;;;5013483;28;20034;-57
2022/08/07 03:08:29;;;;;;;4.30;3.30;;;11.40;99.90;;;;;;5017774;28;20025;-58
2022/08/07 03:10:55;;;;;;;5.28;3.60;;;11.40;99.90;;;;;;5010010;28;20065;-56
2022/08/07 03:13:21;;;;;;;5.50;2.30;;;11.40;99.90;;;;;;5016127;28;20030;-57
2022/08/07 03:15:48;;;;;;;6.22;2.92;;;11.40;99.90;;;;;;5016013;28;20033;-57
2022/08/07 03:18:15;;;;;;;3.80;2.50;;;11.40;99.90;;;;;;5013393;28;20112;-57
2022/08/07 03:20:41;;;;;;;5.05;2.72;;;11.30;99.90;;;;;;5013300;28;20045;-58
2022/08/07 03:23:08;;;;;;;7.28;2.90;;;11.30;99.90;;;;;;5014038;28;20030;-58
2022/08/07 03:25:36;;;;;;;5.72;2.95;;;11.40;99.90;;;;;;5012520;28;20030;-58
2022/08/07 03:28:04;;;;;;;3.85;2.63;;;11.40;99.90;;;;;;5015194;28;20464;-58
2022/08/07 03:30:31;;;;;;;3.95;1.85;;;11.40;99.90;;;;;;5015093;28;20034;-58
2022/08/07 03:32:59;;;;;;;3.20;2.45;;;11.30;99.90;;;;;;5017453;28;20425;-58
2022/08/07 03:35:27;;;;;;;5.97;2.45;;;11.30;99.90;;;;;;5021333;28;20129;-57
2022/08/07 03:37:57;;;;;;;4.85;2.28;;;11.20;99.90;;;;;;5014586;28;20503;-59
2022/08/07 03:40:24;;;;;;;4.63;2.50;;;11.20;99.90;;;;;;5016487;28;20516;-59
2022/08/07 03:42:51;;;;;;;4.03;2.35;;;11.20;99.90;;;;;;5028971;22;20049;-57
2022/08/07 03:45:19;;;;;;;3.47;2.05;;;11.20;99.90;;;;;;5022082;28;20029;-58
2022/08/07 03:47:45;;;;;;;6.57;2.47;;;11.20;99.90;;;;;;5023257;28;20564;-58
2022/08/07 03:50:11;;;;;;;2.80;1.75;;;11.20;99.90;;;;;;5016079;28;20604;-57
2022/08/07 03:52:37;;;;;;;5.22;2.53;;;11.20;99.90;;;;;;5026787;28;20041;-57
2022/08/07 03:55:04;;;;;;;6.68;3.10;;;11.10;99.90;;;;;;5022939;28;20029;-57
2022/08/07 03:57:32;;;;;;;5.07;3.05;;;11.10;99.90;;;;;;5021034;28;20089;-57
2022/08/07 03:59:58;;;;;;;8.10;2.22;;;11.10;99.90;;;;;;5016047;28;20034;-57
2022/08/07 04:02:24;;;;;;;2.88;2.33;;;11.10;99.90;;;;;;5026215;28;20040;-57
2022/08/07 04:04:51;;;;;;;3.92;2.08;;;11.10;99.90;;;;;;5021026;28;20041;-57
2022/08/07 04:07:17;;;;;;;6.57;2.03;;;11.00;99.90;;;;;;5022200;28;20041;-59
2022/08/07 04:09:45;;;;;;;4.15;2.03;;;11.00;99.90;;;;;;5020642;28;20048;-58
2022/08/07 04:12:12;;;;;;;4.13;1.83;;;11.00;99.90;;;;;;5015598;28;20014;-58
2022/08/07 04:14:39;;;;;;;3.75;2.40;;;11.00;99.90;;;;;;5011983;28;20052;-57
2022/08/07 04:17:04;;;;;;;8.32;4.47;;;10.90;99.90;;;;;;5023321;28;20034;-58
2022/08/07 04:19:30;;;;;;;5.90;3.80;;;10.90;99.90;;;;;;5013193;28;20032;-57
2022/08/07 04:21:56;;;;;;;7.13;3.63;;;10.90;99.90;;;;;;5011258;28;20029;-57
2022/08/07 04:24:22;;;;;;;4.95;2.30;;;10.80;99.90;;;;;;5019358;28;20047;-58
2022/08/07 04:26:48;;;;;;;6.38;3.15;;;10.80;99.90;;;;;;5017254;28;20136;-57
2022/08/07 04:29:13;;;;;;;6.90;3.50;;;10.80;99.90;;;;;;5020345;28;20435;-57
2022/08/07 04:31:39;;;;;;;5.60;3.10;;;10.80;99.90;;;;;;5025881;28;20035;-56
2022/08/07 04:34:06;;;;;;;4.45;3.20;;;10.80;99.90;;;;;;5016489;28;20034;-58
2022/08/07 04:36:33;;;;;;;6.45;3.75;;;10.80;99.90;;;;;;5012550;28;20117;-57
2022/08/07 04:39:00;;;;;;;7.68;3.53;;;10.90;99.90;;;;;;5013692;28;20104;-58
2022/08/07 04:41:26;;;;;;;5.78;3.80;;;10.90;99.90;;;;;;5013671;28;20085;-56
2022/08/07 04:43:54;;;;;;;4.65;2.65;;;10.80;99.90;;;;;;5010569;28;20485;-57
2022/08/07 04:46:54;;;;;;;6.22;4.25;;;10.80;99.90;;;;;;5011650;28;20457;-58
2022/08/07 04:49:38;;;;;;;3.95;2.40;;;10.90;99.90;;;;;;5016107;28;20466;-57
2022/08/07 04:52:42;;;;;;;4.43;2.20;;;10.90;99.90;;;;;;5019677;28;20041;-57
2022/08/07 04:55:26;;;;;;;5.13;2.58;;;10.90;99.90;;;;;;5024195;28;20390;-57
2022/08/07 04:57:53;;;;;;;6.40;2.45;;;10.90;99.90;;;;;;5015597;28;20022;-57
2022/08/07 05:00:40;;;;;;;9.27;3.67;;;10.90;99.90;;;;;;5020992;28;20046;-58
2022/08/07 05:03:19;;;;;;;6.00;4.03;;;10.90;99.90;;;;;;5018543;28;20401;-57
2022/08/07 05:05:59;;;;;;;5.05;2.15;;;10.90;99.90;;;;;;5012888;28;20034;-58
2022/08/07 05:08:49;;;;;;;3.55;2.47;;;10.90;99.90;;;;;;5014722;28;20145;-57
2022/08/07 05:11:29;;;;;;;3.65;2.42;;;10.90;99.90;;;;;;5009579;28;20026;-58
2022/08/07 05:14:01;;;;;;;7.22;4.82;;;10.90;99.90;;;;;;5012721;28;20033;-56
2022/08/07 05:16:30;;;;;;;6.13;4.38;;;10.90;99.90;;;;;;5017800;28;20030;-58
2022/08/07 05:19:02;;;;;;;6.47;4.43;;;10.90;99.90;;;;;;5020680;28;20492;-57
2022/08/07 05:21:29;;;;;;;6.13;4.07;;;10.90;99.90;;;;;;5010204;28;20042;-57
2022/08/07 05:24:10;;;;;;;7.43;4.03;;;10.90;99.90;;;;;;5009686;28;20059;-59
2022/08/07 05:26:37;;;;;;;12.18;4.25;;;10.90;99.90;;;;;;4999463;28;20041;-56
2022/08/07 05:29:06;;;;;;;4.55;2.50;;;11.00;99.90;;;;;;5014438;28;20030;-58
2022/08/07 05:31:37;;;;;;;4.78;2.70;;;11.00;99.90;;;;;;5023575;28;20022;-58
2022/08/07 05:34:06;;;;;;;3.35;2.70;;;11.10;99.90;;;;;;5013397;28;20034;-57
2022/08/07 05:36:33;;;;;;;6.70;4.20;;;11.10;99.90;;;;;;5025282;28;20029;-58
2022/08/07 05:39:00;;;;;;;6.00;4.22;;;11.10;99.90;;;;;;5023726;28;20064;-58
2022/08/07 05:41:26;;;;;;;5.53;3.90;;;11.10;99.90;;;;;;5016245;28;20374;-58
2022/08/07 05:43:54;;;;;;;9.23;3.85;;;11.10;99.90;;;;;;5008687;28;20548;-57
2022/08/07 05:46:20;;;;;;;6.95;4.50;;;11.10;99.90;;;;;;5011186;28;20041;-57
2022/08/07 05:48:48;;;;;;;7.15;4.18;;;11.10;99.90;;;;;;5002061;28;20125;-57
2022/08/07 05:51:14;;;;;;;6.32;4.03;;;11.20;99.90;;;;;;5013900;28;20116;-58
2022/08/07 05:53:40;;;;;;;6.78;3.75;;;11.20;99.90;;;;;;5019792;28;20068;-57
2022/08/07 05:56:08;;;;;;;5.68;3.35;;;11.20;99.90;;;;;;5012338;28;20087;-57
2022/08/07 05:58:35;;;;;;;6.57;3.17;;;11.30;99.90;;;;;;5015680;28;20079;-59
2022/08/07 06:01:02;;;;;;;5.47;3.90;;;11.40;99.90;;;;;;5012892;28;20136;-57
2022/08/07 06:03:31;;;;;;;7.15;3.72;;;11.50;99.90;;;;;;5007201;28;20137;-57
2022/08/07 06:05:57;;;;;;;7.93;4.93;;;11.50;99.90;;;;;;5010447;28;20474;-57
2022/08/07 06:08:24;;;;;;;7.10;4.10;;;11.50;99.90;;;;;;5024349;28;20039;-58
2022/08/07 06:10:50;;;;;;;6.53;3.70;;;11.60;99.90;;;;;;5011725;28;20026;-59
2022/08/07 06:13:16;;;;;;;7.18;3.85;;;11.60;99.90;;;;;;5011708;28;20029;-58
2022/08/07 06:15:43;;;;;;;6.70;4.22;;;11.60;99.90;;;;;;5008730;28;20033;-58
2022/08/07 06:18:11;;;;;;;9.75;3.47;;;11.70;99.90;;;;;;5007642;28;20133;-57
2022/08/07 06:20:37;;;;;;;8.70;4.13;;;11.80;99.90;;;;;;5009742;28;20092;-57
2022/08/07 06:23:06;;;;;;;6.35;3.70;;;12.00;99.90;;;;;;5011617;28;20064;-59
2022/08/07 06:25:32;;;;;;;6.60;4.20;;;12.10;99.90;;;;;;5015689;28;20028;-57
2022/08/07 06:28:05;;;;;;;6.50;3.55;;;12.30;99.90;;;;;;5009279;28;20084;-57
2022/08/07 06:30:31;;;;;;;6.55;3.72;;;12.40;99.90;;;;;;5013445;28;20049;-57
2022/08/07 06:32:57;;;;;;;7.05;3.53;;;12.50;99.90;;;;;;5008685;28;20120;-57
2022/08/07 06:35:23;;;;;;;10.65;3.85;;;12.70;99.90;;;;;;5011320;28;20108;-58
2022/08/07 06:37:49;;;;;;;8.40;4.35;;;12.70;99.90;;;;;;5006059;28;20045;-58
2022/08/07 06:40:15;;;;;;;7.00;4.40;;;12.80;99.90;;;;;;5006789;28;20101;-57
2022/08/07 06:42:42;;;;;;;6.20;3.47;;;12.90;99.90;;;;;;5005064;28;20081;-58
2022/08/07 06:45:13;;;;;;;10.32;4.22;;;13.00;99.90;;;;;;5018098;28;20080;-58
2022/08/07 06:47:39;;;;;;;9.40;3.42;;;13.00;99.90;;;;;;5011498;28;20037;-57
2022/08/07 06:50:05;;;;;;;9.38;3.80;;;13.10;99.90;;;;;;5013311;28;20061;-57
2022/08/07 06:52:35;;;;;;;6.93;3.72;;;13.20;99.90;;;;;;5019594;28;20087;-57
2022/08/07 06:55:08;;;;;;;6.57;3.42;;;13.30;99.90;;;;;;5016000;28;20037;-58
2022/08/07 06:57:35;;;;;;;8.38;3.38;;;13.30;99.90;;;;;;5010202;28;20129;-56
2022/08/07 07:00:02;;;;;;;5.20;2.80;;;13.40;99.90;;;;;;5010546;28;20378;-58
2022/08/07 07:02:29;;;;;;;6.72;3.60;;;13.40;99.90;;;;;;5016745;28;20025;-58
2022/08/07 07:04:55;;;;;;;5.53;2.30;;;13.50;99.90;;;;;;5019415;28;20033;-58
2022/08/07 07:07:21;;;;;;;4.78;2.17;;;13.60;99.90;;;;;;5017070;28;20038;-58
2022/08/07 07:09:48;;;;;;;5.72;2.35;;;13.60;99.90;;;;;;5013310;28;20115;-57
2022/08/07 07:12:47;;;;;;;6.25;2.35;;;13.70;99.90;;;;;;5016892;28;20029;-57
2022/08/07 07:15:20;;;;;;;5.10;2.25;;;13.80;99.90;;;;;;5011490;28;20041;-58
2022/08/07 07:18:21;;;;;;;6.90;2.53;;;13.80;99.90;;;;;;5014145;28;20088;-58
2022/08/07 07:20:54;;;;;;;5.15;2.38;;;13.90;99.90;;;;;;4982766;28;20145;-57
2022/08/07 07:23:20;;;;;;;4.07;2.08;;;14.00;99.90;;;;;;4989172;28;20026;-57
2022/08/07 07:25:50;;;;;;;5.68;2.47;;;14.10;99.90;;;;;;4989354;28;20474;-57
2022/08/07 07:28:31;;;;;;;9.15;2.67;;;14.20;99.90;;;;;;4987047;28;20459;-57
2022/08/07 07:31:02;;;;;;;4.43;2.30;;;14.20;99.90;;;;;;4987142;28;20058;-56
2022/08/07 07:33:31;;;;;;;4.75;2.30;;;14.40;99.90;;;;;;4981627;28;20117;-58
2022/08/07 07:35:57;;;;;;;3.88;2.25;;;14.50;99.90;;;;;;4996699;28;20030;-57
2022/08/07 07:38:24;;;;;;;6.03;3.00;;;14.60;99.90;;;;;;4987719;28;20402;-57
2022/08/07 07:40:54;;;;;;;3.13;2.80;;;14.70;99.90;;;;;;4989584;28;20580;-58
2022/08/07 07:43:24;;;;;;;5.72;2.72;;;14.80;99.90;;;;;;4989470;28;20046;-58
2022/08/07 07:45:50;;;;;;;8.35;2.50;;;14.80;99.90;;;;;;4985468;28;20031;-58
2022/08/07 07:48:20;;;;;;;5.30;2.33;;;15.00;99.90;;;;;;4986323;28;20057;-57
2022/08/07 07:50:47;;;;;;;6.80;2.70;;;15.00;99.90;;;;;;4983039;28;20126;-57
2022/08/07 07:53:15;;;;;;;6.82;2.25;;;15.10;99.90;;;;;;4991919;28;20022;-58
2022/08/07 07:55:41;;;;;;;8.40;2.72;;;15.20;99.90;;;;;;4989415;28;20068;-57
2022/08/07 07:58:07;;;;;;;5.55;2.40;;;15.30;99.90;;;;;;5005369;28;20414;-57
2022/08/07 08:00:33;;;;;;;4.15;1.83;;;15.40;99.90;;;;;;5012250;28;20032;-58
2022/08/07 08:03:05;;;;;;;5.05;2.30;;;15.50;99.90;;;;;;5007992;28;20030;-58
2022/08/07 08:05:31;;;;;;;3.17;2.33;;;15.60;99.90;;;;;;5018474;28;20026;-56
2022/08/07 08:07:57;;;;;;;4.22;2.03;;;15.70;99.90;;;;;;5019231;28;20045;-58
2022/08/07 08:10:23;;;;;;;6.15;2.00;;;15.80;99.90;;;;;;5014577;28;20040;-58
2022/08/07 08:12:49;;;;;;;4.43;2.20;;;15.90;99.90;;;;;;5012827;28;20485;-58
2022/08/07 08:15:15;;;;;;;5.18;2.10;;;16.00;99.90;;;;;;5015340;28;20500;-56
2022/08/07 08:17:43;;;;;;;4.90;2.00;;;16.20;99.90;;;;;;5011000;28;20026;-57
2022/08/07 08:20:10;;;;;;;3.03;1.70;;;16.40;99.90;;;;;;5004883;28;20109;-58
2022/08/07 08:28:17;;;;;;;1.88;1.60;;;16.90;99.90;;;;;;5008365;28;20394;-60
2022/08/07 08:30:44;;;;;;;6.35;1.88;;;17.00;99.90;;;;;;5002021;28;20022;-58
2022/08/07 08:33:17;;;;;;;4.75;1.73;;;17.10;99.90;;;;;;5008105;28;20061;-57
2022/08/07 08:35:49;;;;;;;3.00;1.38;;;17.20;99.90;;;;;;5009379;28;20530;-58
2022/08/07 08:38:17;;;;;;;4.70;1.50;;;17.30;99.90;;;;;;5005399;28;21179;-58
2022/08/07 08:40:50;;;;;;;5.28;1.85;;;17.40;99.90;;;;;;5014768;28;20109;-56
2022/08/07 08:43:30;;;;;;;1.45;1.30;;;17.50;99.90;;;;;;5011087;28;20045;-57
2022/08/07 08:46:14;;;;;;;5.85;2.40;;;17.60;99.90;;;;;;5015357;28;20025;-57
2022/08/07 08:49:03;;;;;;;2.85;1.38;;;17.80;99.90;;;;;;5000805;28;20038;-57
2022/08/07 08:51:40;;;;;;;3.38;1.77;;;17.90;99.90;;;;;;5013763;28;20052;-58
2022/08/07 08:54:13;;;;;;;6.90;2.38;;;18.00;99.90;;;;;;5012140;28;20057;-58
2022/08/07 08:56:46;;;;;;;4.15;1.50;;;18.10;99.90;;;;;;5010731;28;20379;-58
2022/08/07 08:59:41;;;;;;;6.70;2.50;;;18.10;99.90;;;;;;5014442;28;20065;-58
2022/08/07 09:02:30;;;;;;;5.85;1.77;;;18.30;99.90;;;;;;5009194;28;20092;-58
2022/08/07 09:05:22;;;;;;;2.47;1.38;;;18.30;99.90;;;;;;5014589;28;20029;-58
2022/08/07 09:08:12;;;;;;;3.50;1.63;;;18.50;99.90;;;;;;5008397;28;20041;-58
2022/08/07 09:10:45;;;;;;;4.32;1.70;;;18.60;99.90;;;;;;5003968;28;20061;-57
2022/08/07 09:13:31;;;;;;;3.25;1.65;;;18.90;99.90;;;;;;5014620;28;20055;-59
2022/08/07 09:16:12;;;;;;;5.50;1.70;;;19.10;99.90;;;;;;4999108;28;20109;-58
2022/08/07 09:18:53;;;;;;;2.60;1.45;;;19.20;99.90;;;;;;5009366;28;20048;-57
2022/08/07 09:21:28;;;;;;;4.10;2.28;;;19.50;99.90;;;;;;5009790;28;20362;-60
2022/08/07 09:24:21;;;;;;;3.58;1.90;;;19.60;99.90;;;;;;5013232;28;20065;-58
2022/08/07 09:27:11;;;;;;;4.03;1.67;;;19.80;99.90;;;;;;5015139;28;20517;-58
2022/08/07 09:29:49;;;;;;;4.75;1.80;;;20.00;99.90;;;;;;5024642;28;20036;-57
2022/08/07 09:32:52;;;;;;;3.45;1.70;;;20.10;99.90;;;;;;5013035;28;20093;-57
2022/08/07 09:35:33;;;;;;;5.10;1.77;;;20.20;99.90;;;;;;5007232;28;20038;-56
2022/08/07 09:38:10;;;;;;;5.45;2.05;;;20.20;99.90;;;;;;5007715;28;20069;-58
2022/08/07 09:41:10;;;;;;;3.45;1.50;;;20.30;99.90;;;;;;5009737;28;20430;-59
2022/08/07 09:44:01;;;;;;;4.40;2.13;;;20.30;99.90;;;;;;5004543;28;20049;-58
2022/08/07 09:47:04;;;;;;;5.32;1.80;;;20.40;99.90;;;;;;5024668;28;20034;-58
2022/08/07 09:50:03;;;;;;;2.95;1.67;;;20.60;99.90;;;;;;5008650;28;20038;-57
2022/08/07 09:52:36;;;;;;;5.63;2.05;;;20.80;99.30;;;;;;5011866;28;20129;-57
2022/08/07 09:55:32;;;;;;;4.78;1.90;;;20.90;97.60;;;;;;5009923;28;20131;-56
2022/08/07 09:58:30;;;;;;;3.33;1.30;;;21.00;95.40;;;;;;5004528;28;20034;-58
2022/08/07 10:01:20;;;;;;;3.83;1.80;;;21.20;95.70;;;;;;5003024;28;20026;-58
2022/08/07 10:04:12;;;;;;;3.20;1.45;;;21.10;95.10;;;;;;5007860;28;20425;-58
2022/08/07 10:06:50;;;;;;;;;;;21.40;94.90;;;;;;5017794;28;20037;-58
2022/08/07 10:09:20;;;;;;;4.55;2.17;;;21.50;93.40;;;;;;5008503;28;19909;-58
2022/08/07 10:11:49;;;;;;;3.85;1.63;;;21.60;93.10;;;;;;5002849;28;20045;-59
2022/08/07 10:14:27;;;;;;;4.30;1.95;;;21.70;92.30;;;;;;5010013;28;20096;-59
2022/08/07 10:17:18;;;;;;;4.25;1.80;;;21.70;91.60;;;;;;5011141;28;20390;-59
2022/08/07 10:19:46;;;;;;;3.75;1.90;;;21.80;90.20;;;;;;5010656;28;20441;-59
2022/08/07 10:22:36;;;;;;;3.40;1.70;;;21.90;90.10;;;;;;5010948;28;20026;-58
2022/08/07 10:25:27;;;;;;;3.92;1.92;;;22.00;89.30;;;;;;5006761;28;20030;-57
2022/08/07 10:28:14;;;;;;;3.17;1.73;;;22.20;86.40;;;;;;5003452;28;20111;-58
2022/08/07 10:30:51;;;;;;;6.03;1.85;;;22.40;84.20;;;;;;5003071;28;20112;-59
2022/08/07 10:33:39;;;;;;;5.38;2.03;;;22.50;82.30;;;;;;5005962;28;20030;-59
2022/08/07 10:36:20;;;;;;;5.53;1.70;;;22.60;82.50;;;;;;5007555;28;20572;-58
2022/08/07 10:39:04;;;;;;;2.95;2.05;;;22.70;79.20;;;;;;5009245;28;20048;-58
2022/08/07 10:41:32;;;;;;;2.00;1.45;;;22.80;79.80;;;;;;5008682;28;20066;-59
2022/08/07 10:44:14;;;;;;;3.65;1.92;;;22.60;92.50;;;;;;5011684;28;20064;-57
2022/08/07 10:46:52;;;;;;;;;;;22.70;93.20;;;;;;5004063;28;20189;-58
2022/08/07 10:49:35;;;;;;;3.20;1.58;;;23.00;96.40;;;;;;5008034;28;20370;-58
2022/08/07 10:52:41;;;;;;;2.85;1.50;;;22.90;97.40;;;;;;5006042;28;20072;-58
2022/08/07 10:55:37;;;;;;;5.22;2.20;;;22.70;97.90;;;;;;4990496;28;20064;-58
2022/08/07 10:58:16;;;;;;;7.82;2.33;;;22.60;98.20;;;;;;5010213;28;20035;-58
2022/08/07 11:00:56;;;;;;;7.90;1.50;;;22.50;98.50;;;;;;5008489;28;20030;-59
2022/08/07 11:03:50;;;;;;;5.00;1.98;;;22.80;98.00;;;;;;5011156;28;20051;-59
2022/08/07 11:06:27;;;;;;;3.97;1.80;;;22.70;96.90;;;;;;5021152;28;20033;-60
2022/08/07 11:09:02;;;;;;;3.40;1.70;;;22.70;96.50;;;;;;5003795;28;20033;-57
2022/08/07 11:11:32;;;;;;;3.28;1.60;;;23.10;96.10;;;;;;5016310;28;20037;-59
2022/08/07 11:14:06;;;;;;;4.03;1.92;;;23.60;94.70;;;;;;5013144;28;20018;-57
2022/08/07 11:16:53;;;;;;;4.95;1.60;;;24.40;92.10;;;;;;5008965;28;20052;-58
2022/08/07 11:19:50;;;;;;;5.43;1.88;;;24.80;90.90;;;;;;5010144;28;20030;-59
2022/08/07 11:22:37;;;;;;;5.90;1.95;;;25.00;89.50;;;;;;5012656;28;20036;-58
2022/08/07 11:25:26;;;;;;;4.85;2.50;;;25.20;86.60;;;;;;5024985;28;20025;-58
2022/08/07 11:28:14;;;;;;;3.47;1.73;;;25.30;85.10;;;;;;5004201;28;20042;-59
2022/08/07 11:30:58;;;;;;;3.30;2.10;;;25.40;84.20;;;;;;5010894;28;20030;-59
2022/08/07 11:33:27;;;;;;;3.65;1.73;;;25.30;82.10;;;;;;5023583;28;20040;-59
2022/08/07 11:36:17;;;;;;;5.40;1.75;;;25.60;81.70;;;;;;5017327;28;20401;-57
2022/08/07 11:38:52;;;;;;;3.17;1.60;;;25.70;80.00;;;;;;5025906;28;20033;-58
2022/08/07 11:41:22;;;;;;;5.85;1.80;;;25.90;80.20;;;;;;5012007;28;20029;-59
2022/08/07 11:44:14;;;;;;;2.30;1.73;;;26.00;79.90;;;;;;5017213;28;20058;-57
2022/08/07 11:46:46;;;;;;;3.15;1.48;;;26.00;79.90;;;;;;5015338;28;20184;-59
2022/08/07 11:49:35;;;;;;;2.17;1.50;;;26.00;78.90;;;;;;5013811;28;20030;-58
2022/08/07 11:52:16;;;;;;;2.28;1.67;;;26.10;77.00;;;;;;5013084;28;20030;-57
2022/08/07 11:54:57;;;;;;;2.65;1.60;;;26.20;75.50;;;;;;5014033;28;20128;-58
2022/08/07 11:57:32;;;;;;;6.55;1.92;;;26.10;74.30;;;;;;5017479;28;20033;-59
2022/08/07 12:00:10;;;;;;;4.40;1.75;;;26.20;73.30;;;;;;5016071;28;20037;-58
2022/08/07 12:02:59;;;;;;;5.00;1.88;;;26.20;73.20;;;;;;5016701;28;20508;-58
2022/08/07 12:05:43;;;;;;;6.53;2.00;;;26.70;73.00;;;;;;5014080;28;20092;-58
2022/08/07 12:08:15;;;;;;;2.17;1.65;;;26.70;71.20;;;;;;5025109;28;20041;-58
2022/08/07 12:11:02;;;;;;;3.97;1.70;;;26.90;70.00;;;;;;5019557;28;20037;-59
2022/08/07 12:13:41;;;;;;;2.90;1.42;;;26.70;70.20;;;;;;5012407;28;20033;-58
2022/08/07 12:16:21;;;;;;;2.50;1.73;;;27.00;69.60;;;;;;5015436;28;20116;-56
2022/08/07 12:18:54;;;;;;;2.88;2.00;;;26.80;70.40;;;;;;5014025;28;20068;-58
2022/08/07 12:21:51;;;;;;;4.78;1.92;;;26.90;70.70;;;;;;5015865;28;20090;-59
2022/08/07 12:24:19;;;;;;;4.07;1.65;;;26.80;71.10;;;;;;5013157;28;20040;-58
2022/08/07 12:27:15;;;;;;;2.67;1.90;;;26.90;66.60;;;;;;5024719;28;20068;-61
2022/08/07 12:30:00;;;;;;;3.75;1.75;;;27.10;66.10;;;;;;5015021;28;20034;-57
2022/08/07 12:32:33;;;;;;;3.83;1.40;;;27.30;64.80;;;;;;5015995;28;20022;-58
2022/08/07 12:35:03;;;;;;;2.15;1.73;;;27.20;64.20;;;;;;5010998;28;20124;-61
2022/08/07 12:37:30;;;;;;;5.20;1.73;;;27.30;62.80;;;;;;5018140;28;20026;-58
2022/08/07 12:39:57;;;;;;;2.70;1.58;;;27.10;62.50;;;;;;5010231;28;20038;-59
2022/08/07 12:42:29;;;;;;;3.47;1.90;;;27.40;62.00;;;;;;5015863;28;20034;-59
2022/08/07 12:45:05;;;;;;;4.47;2.22;;;27.30;61.20;;;;;;5017234;28;20774;-58
2022/08/07 12:47:48;;;;;;;2.13;1.63;;;27.40;62.20;;;;;;5011560;28;20049;-58
2022/08/07 12:50:39;;;;;;;5.80;1.80;;;27.30;61.60;;;;;;5011373;28;20363;-58
2022/08/07 12:53:18;;;;;;;4.88;1.70;;;27.30;62.40;;;;;;5009811;28;20055;-58
2022/08/07 12:56:08;;;;;;;2.85;1.80;;;27.20;63.30;;;;;;5019286;28;20033;-58
2022/08/07 12:58:43;;;;;;;5.88;1.95;;;27.40;62.00;;;;;;5013342;28;20046;-59
2022/08/07 13:01:14;;;;;;;3.58;1.55;;;27.20;62.10;;;;;;5009545;28;20050;-58
2022/08/07 13:04:01;;;;;;;3.53;1.80;;;27.10;61.40;;;;;;5008981;28;20548;-58
2022/08/07 13:06:44;;;;;;;3.15;1.60;;;27.60;60.90;;;;;;5024296;28;20045;-58
2022/08/07 13:09:34;;;;;;;3.15;1.90;;;28.10;59.40;;;;;;5008960;28;20071;-58
2022/08/07 13:12:53;;;;;;;2.55;1.42;;;28.30;58.60;;;;;;5016110;28;20120;-57
2022/08/07 13:15:32;;;;;;;3.63;1.73;;;28.40;57.60;;;;;;4956014;28;20122;-57
2022/08/07 13:18:09;;;;;;;3.03;1.77;;;28.40;56.70;;;;;;4968141;28;20620;-58
2022/08/07 13:20:45;;;;;;;4.65;1.55;;;28.50;57.10;;;;;;4955391;28;20113;-57
2022/08/07 13:23:48;;;;;;;4.43;1.70;;;28.70;55.90;;;;;;4956425;28;20031;-57
2022/08/07 13:26:39;;;;;;;2.60;1.55;;;29.00;55.50;;;;;;4963753;28;20062;-58